Time;durP1;ratioP1;P1;durP2;ratioP2;P2;SDS_P1;SDS_P2;PMS_P1;PMS_P2;Temp;Humidity;BMP_temperature;BMP_pressure;BME280_temperature;BME280_humidity;BME280_pressure;Samples;Min_cycle;Max_cycle;Signal;HPM_P1;HPM_P2
2021/01/07 00:01:31;;;;;;;32.00;23.40;;;2.40;91.00;;;;;;5054803;28;20029;-89
2021/01/07 00:03:56;;;;;;;36.08;24.27;;;2.40;91.10;;;;;;5052258;28;20084;-90
2021/01/07 00:06:22;;;;;;;30.58;22.73;;;2.30;91.00;;;;;;5051044;28;20056;-90
2021/01/07 00:08:48;;;;;;;36.97;23.52;;;2.30;90.90;;;;;;5048479;28;20064;-88
2021/01/07 00:11:14;;;;;;;34.35;24.10;;;2.40;90.90;;;;;;5049360;28;20118;-84
2021/01/07 00:13:39;;;;;;;32.88;21.90;;;2.40;91.00;;;;;;5045599;28;20181;-91
2021/01/07 00:16:05;;;;;;;34.92;22.55;;;2.40;91.00;;;;;;5056885;28;20036;-91
2021/01/07 00:18:31;;;;;;;32.28;22.33;;;2.40;90.90;;;;;;5046994;28;20025;-88
2021/01/07 00:20:57;;;;;;;30.13;21.05;;;2.40;90.80;;;;;;5048050;28;20036;-88
2021/01/07 00:23:23;;;;;;;32.25;21.67;;;2.40;90.80;;;;;;5044125;28;20473;-87
2021/01/07 00:25:51;;;;;;;32.97;20.55;;;2.30;90.80;;;;;;5070974;28;20054;-80
2021/01/07 00:28:18;;;;;;;29.80;21.98;;;2.30;90.90;;;;;;5055791;28;20484;-90
2021/01/07 00:30:45;;;;;;;27.90;19.38;;;2.40;90.80;;;;;;5047750;28;20041;-87
2021/01/07 00:33:12;;;;;;;26.85;19.27;;;2.40;90.80;;;;;;5052954;28;20035;-91
2021/01/07 00:35:39;;;;;;;25.27;18.58;;;2.40;90.80;;;;;;5051304;28;20047;-89
2021/01/07 00:38:05;;;;;;;26.77;18.73;;;2.40;90.80;;;;;;5055295;28;20033;-90
2021/01/07 00:40:32;;;;;;;27.75;19.20;;;2.40;90.90;;;;;;5053748;28;20415;-90
2021/01/07 00:42:58;;;;;;;26.60;19.08;;;2.40;91.00;;;;;;5054995;28;20021;-91
2021/01/07 00:45:23;;;;;;;26.98;18.55;;;2.40;90.90;;;;;;5063321;28;20107;-80
2021/01/07 00:47:49;;;;;;;27.17;16.83;;;2.40;90.90;;;;;;5074990;28;20021;-80
2021/01/07 00:50:15;;;;;;;23.77;16.95;;;2.40;91.00;;;;;;5063027;28;20620;-88
2021/01/07 00:52:41;;;;;;;23.77;15.93;;;2.40;90.90;;;;;;5058490;28;20037;-87
2021/01/07 00:55:08;;;;;;;25.45;16.48;;;2.40;90.90;;;;;;5051397;28;20048;-91
2021/01/07 00:57:34;;;;;;;22.50;15.68;;;2.40;91.00;;;;;;5050758;28;20031;-92
2021/01/07 01:00:00;;;;;;;22.77;14.80;;;2.40;91.10;;;;;;5049416;28;20109;-90
2021/01/07 01:02:26;;;;;;;20.65;13.88;;;2.40;91.20;;;;;;5042498;28;20437;-90
2021/01/07 01:04:51;;;;;;;21.00;14.73;;;2.40;91.30;;;;;;5051990;28;20056;-91
2021/01/07 01:07:17;;;;;;;23.20;13.25;;;2.40;91.40;;;;;;5050942;28;20025;-86
2021/01/07 01:09:43;;;;;;;20.30;12.95;;;2.40;91.30;;;;;;5050891;28;20033;-90
2021/01/07 01:12:09;;;;;;;20.30;13.10;;;2.40;91.30;;;;;;5050940;28;20068;-88
2021/01/07 01:14:35;;;;;;;19.40;13.05;;;2.40;91.40;;;;;;5052752;28;20064;-91
2021/01/07 01:17:00;;;;;;;19.23;12.75;;;2.40;91.40;;;;;;5048345;28;20099;-85
2021/01/07 01:19:26;;;;;;;17.80;12.82;;;2.40;91.40;;;;;;5059761;28;20089;-90
2021/01/07 01:21:52;;;;;;;19.77;12.45;;;2.40;91.40;;;;;;5052702;28;20090;-91
2021/01/07 01:24:19;;;;;;;20.10;12.80;;;2.40;91.40;;;;;;5050598;28;20047;-86
2021/01/07 01:26:44;;;;;;;20.17;12.23;;;2.40;91.40;;;;;;5052085;28;20037;-91
2021/01/07 01:29:10;;;;;;;18.20;12.27;;;2.40;91.50;;;;;;5050951;28;20035;-91
2021/01/07 01:31:40;;;;;;;18.77;12.27;;;2.40;91.50;;;;;;5051779;28;20059;-91
2021/01/07 01:34:06;;;;;;;17.13;11.25;;;2.40;91.50;;;;;;5073220;28;20088;-89
2021/01/07 01:36:32;;;;;;;18.83;11.65;;;2.40;91.60;;;;;;5055435;28;20424;-88
2021/01/07 01:38:58;;;;;;;17.90;11.77;;;2.40;91.50;;;;;;5043758;28;20120;-90
2021/01/07 01:41:24;;;;;;;19.80;12.13;;;2.40;91.50;;;;;;5051874;28;20065;-90
2021/01/07 01:43:50;;;;;;;20.80;12.98;;;2.40;91.60;;;;;;5051279;28;20468;-87
2021/01/07 01:46:15;;;;;;;17.63;12.10;;;2.40;91.50;;;;;;5058665;28;20037;-91
2021/01/07 01:48:41;;;;;;;19.50;12.05;;;2.40;91.60;;;;;;5071151;28;20033;-80
2021/01/07 01:51:10;;;;;;;18.73;12.98;;;2.50;91.60;;;;;;5069295;28;20044;-89
2021/01/07 01:53:38;;;;;;;18.52;11.85;;;2.40;91.60;;;;;;5048151;28;20029;-87
2021/01/07 01:56:05;;;;;;;19.02;12.57;;;2.50;91.70;;;;;;5051012;28;20472;-89
2021/01/07 01:58:34;;;;;;;18.75;11.68;;;2.50;91.70;;;;;;5052417;28;20108;-85
2021/01/07 02:01:00;;;;;;;19.35;12.10;;;2.50;91.60;;;;;;5057458;28;20177;-91
2021/01/07 02:03:25;;;;;;;17.52;11.50;;;2.50;91.60;;;;;;5052597;28;20060;-87
2021/01/07 02:05:51;;;;;;;19.13;11.93;;;2.50;91.60;;;;;;5060049;28;20051;-89
2021/01/07 02:08:18;;;;;;;17.15;11.70;;;2.50;91.60;;;;;;5050740;28;20030;-91
2021/01/07 02:10:46;;;;;;;16.00;10.65;;;2.50;91.60;;;;;;5079023;28;20057;-88
2021/01/07 02:13:12;;;;;;;16.00;9.73;;;2.50;91.70;;;;;;5074144;28;20044;-82
2021/01/07 02:15:40;;;;;;;14.35;8.63;;;2.40;91.70;;;;;;5073250;28;20028;-79
2021/01/07 02:18:06;;;;;;;15.10;9.50;;;2.50;91.80;;;;;;5074671;28;20024;-83
2021/01/07 02:20:33;;;;;;;14.80;9.55;;;2.50;91.80;;;;;;5080267;28;20027;-80
2021/01/07 02:22:58;;;;;;;14.02;9.20;;;2.40;91.80;;;;;;5075045;28;20020;-80
2021/01/07 02:25:24;;;;;;;14.27;9.43;;;2.50;91.90;;;;;;5071310;28;20041;-86
2021/01/07 02:27:50;;;;;;;14.00;8.82;;;2.50;91.90;;;;;;5071907;28;20040;-85
2021/01/07 02:30:17;;;;;;;15.38;9.02;;;2.50;91.90;;;;;;5059047;28;20063;-87
2021/01/07 02:32:43;;;;;;;17.13;10.70;;;2.50;91.90;;;;;;5050347;28;20025;-89
2021/01/07 02:35:09;;;;;;;13.85;8.98;;;2.40;91.90;;;;;;5058753;28;20040;-88
2021/01/07 02:37:41;;;;;;;14.85;9.40;;;2.40;91.90;;;;;;5053875;28;20025;-90
2021/01/07 02:40:09;;;;;;;15.25;9.73;;;2.50;92.00;;;;;;5048090;28;20054;-80
2021/01/07 02:42:35;;;;;;;16.95;10.50;;;2.40;92.00;;;;;;5049359;28;20388;-88
2021/01/07 02:45:00;;;;;;;18.98;10.73;;;2.50;91.90;;;;;;5051854;28;20036;-82
2021/01/07 02:47:26;;;;;;;15.95;10.55;;;2.40;91.80;;;;;;5049955;28;20041;-79
2021/01/07 02:49:52;;;;;;;19.05;12.07;;;2.40;91.80;;;;;;5059491;28;20025;-88
2021/01/07 02:52:17;;;;;;;21.75;11.95;;;2.50;91.90;;;;;;5047744;28;20043;-82
2021/01/07 02:54:43;;;;;;;19.17;12.80;;;2.40;91.80;;;;;;5062409;28;20388;-89
2021/01/07 02:57:09;;;;;;;20.90;14.10;;;2.40;91.90;;;;;;5062465;28;20067;-90
2021/01/07 02:59:35;;;;;;;24.17;14.77;;;2.40;91.90;;;;;;5048077;28;20036;-89
2021/01/07 03:02:00;;;;;;;26.85;16.33;;;2.40;91.90;;;;;;5051236;28;20037;-81
2021/01/07 03:04:26;;;;;;;26.38;16.88;;;2.40;92.00;;;;;;5046506;28;20036;-91
2021/01/07 03:06:52;;;;;;;24.30;15.77;;;2.50;92.10;;;;;;5052733;28;20040;-89
2021/01/07 03:09:17;;;;;;;27.15;17.48;;;2.50;92.00;;;;;;5042879;28;20117;-88
2021/01/07 03:11:43;;;;;;;28.25;19.25;;;2.50;92.10;;;;;;5044119;28;20029;-88
2021/01/07 03:14:09;;;;;;;27.95;19.00;;;2.50;92.00;;;;;;5047617;28;20084;-86
2021/01/07 03:16:34;;;;;;;26.13;20.08;;;2.50;92.00;;;;;;5046772;28;20036;-91
2021/01/07 03:19:00;;;;;;;29.38;21.65;;;2.50;92.00;;;;;;5052838;28;20020;-91
2021/01/07 03:21:26;;;;;;;33.75;23.65;;;2.50;92.10;;;;;;5047618;28;20040;-90
2021/01/07 03:23:51;;;;;;;32.05;23.35;;;2.50;92.00;;;;;;5050728;28;20039;-91
2021/01/07 03:26:17;;;;;;;28.23;21.67;;;2.50;92.10;;;;;;5055102;28;20054;-79
2021/01/07 03:28:43;;;;;;;26.50;18.20;;;2.60;92.10;;;;;;5068697;28;20040;-83
2021/01/07 03:31:10;;;;;;;23.23;16.73;;;2.60;92.10;;;;;;5051620;28;20039;-90
2021/01/07 03:33:36;;;;;;;18.80;13.45;;;2.50;92.10;;;;;;5052863;28;20079;-89
2021/01/07 03:36:03;;;;;;;18.17;12.98;;;2.50;92.10;;;;;;5068635;28;20430;-89
2021/01/07 03:38:28;;;;;;;18.30;12.70;;;2.50;92.20;;;;;;5052108;28;20029;-90
2021/01/07 03:40:54;;;;;;;19.83;13.25;;;2.50;92.20;;;;;;5049290;28;20050;-90
2021/01/07 03:43:20;;;;;;;18.67;12.32;;;2.50;92.20;;;;;;5066413;28;21528;-79
2021/01/07 03:45:45;;;;;;;18.10;11.57;;;2.50;92.30;;;;;;5055812;28;20044;-88
2021/01/07 03:48:11;;;;;;;17.58;11.48;;;2.50;92.30;;;;;;5065701;28;20021;-82
2021/01/07 03:50:37;;;;;;;17.42;10.90;;;2.50;92.30;;;;;;5077875;28;20700;-85
2021/01/07 03:53:03;;;;;;;14.48;10.02;;;2.50;92.30;;;;;;5070897;28;20056;-90
2021/01/07 03:55:29;;;;;;;16.52;9.82;;;2.50;92.40;;;;;;5052133;28;20041;-89
2021/01/07 03:57:54;;;;;;;15.65;9.75;;;2.50;92.40;;;;;;5057801;28;20052;-78
2021/01/07 04:00:20;;;;;;;16.23;8.80;;;2.50;92.50;;;;;;5069613;28;20093;-90
2021/01/07 04:02:46;;;;;;;16.33;8.77;;;2.50;92.50;;;;;;5050114;28;20048;-90
2021/01/07 04:05:12;;;;;;;13.32;8.05;;;2.40;92.50;;;;;;5053335;28;20123;-90
2021/01/07 04:07:38;;;;;;;13.90;8.27;;;2.50;92.60;;;;;;5050390;28;20084;-90
2021/01/07 04:10:06;;;;;;;13.43;8.23;;;2.40;92.60;;;;;;5049901;28;20033;-89
2021/01/07 04:12:31;;;;;;;14.45;8.35;;;2.40;92.60;;;;;;5051520;28;20028;-89
2021/01/07 04:14:57;;;;;;;16.23;9.00;;;2.40;92.60;;;;;;5050936;28;20388;-82
2021/01/07 04:17:23;;;;;;;13.20;8.43;;;2.50;92.70;;;;;;5046576;28;20071;-90
2021/01/07 04:19:48;;;;;;;13.55;8.43;;;2.40;92.60;;;;;;5052240;28;20116;-89
2021/01/07 04:22:14;;;;;;;15.65;9.65;;;2.40;92.70;;;;;;5058059;28;20029;-91
2021/01/07 04:24:39;;;;;;;13.52;9.45;;;2.50;92.70;;;;;;5046381;28;20025;-89
2021/01/07 04:27:05;;;;;;;14.43;8.60;;;2.50;92.70;;;;;;5056893;28;20498;-85
2021/01/07 04:29:31;;;;;;;13.40;7.68;;;2.50;92.60;;;;;;5053736;28;20041;-90
2021/01/07 04:31:57;;;;;;;12.43;7.55;;;2.50;92.60;;;;;;5048690;28;20029;-86
2021/01/07 04:34:22;;;;;;;10.88;7.32;;;2.50;92.60;;;;;;5047664;28;20470;-91
2021/01/07 04:36:48;;;;;;;11.93;6.65;;;2.50;92.60;;;;;;5059076;28;20049;-91
2021/01/07 04:39:14;;;;;;;14.20;8.00;;;2.50;92.60;;;;;;5051712;28;20029;-88
2021/01/07 04:41:40;;;;;;;10.00;6.43;;;2.50;92.60;;;;;;5047584;28;20270;-91
2021/01/07 04:44:06;;;;;;;11.45;7.05;;;2.50;92.70;;;;;;5047617;28;20515;-91
2021/01/07 04:46:33;;;;;;;11.32;6.20;;;2.50;92.70;;;;;;5049261;28;20037;-81
2021/01/07 04:48:59;;;;;;;9.38;5.60;;;2.50;92.70;;;;;;5047624;28;20364;-90
2021/01/07 04:51:24;;;;;;;11.43;6.20;;;2.50;92.70;;;;;;5048499;28;20033;-92
2021/01/07 04:53:50;;;;;;;8.98;6.10;;;2.50;92.70;;;;;;5048038;28;20099;-91
2021/01/07 04:56:16;;;;;;;10.30;5.43;;;2.50;92.80;;;;;;5051358;28;20033;-82
2021/01/07 04:58:42;;;;;;;11.23;5.63;;;2.50;92.80;;;;;;5059962;28;20048;-90
2021/01/07 05:01:07;;;;;;;9.80;5.78;;;2.50;92.80;;;;;;5049954;28;20495;-86
2021/01/07 05:03:34;;;;;;;10.15;6.18;;;2.50;92.90;;;;;;5048127;28;20075;-80
2021/01/07 05:06:00;;;;;;;10.77;5.85;;;2.60;92.90;;;;;;5053429;28;20040;-91
2021/01/07 05:08:26;;;;;;;11.43;5.63;;;2.50;92.90;;;;;;5052882;28;20037;-85
2021/01/07 05:10:53;;;;;;;10.60;5.18;;;2.50;92.90;;;;;;5050538;28;20151;-87
2021/01/07 05:13:20;;;;;;;12.00;5.65;;;2.50;92.90;;;;;;5052278;28;20021;-89
2021/01/07 05:15:46;;;;;;;9.95;5.40;;;2.50;92.90;;;;;;5050282;28;20049;-84
2021/01/07 05:18:12;;;;;;;9.18;5.65;;;2.50;92.90;;;;;;5052097;28;20040;-92
2021/01/07 05:20:38;;;;;;;10.20;5.20;;;2.50;93.00;;;;;;5056313;28;20028;-91
2021/01/07 05:23:03;;;;;;;10.90;5.30;;;2.50;93.00;;;;;;5060743;28;20119;-89
2021/01/07 05:25:29;;;;;;;9.38;4.97;;;2.50;93.00;;;;;;5054489;28;20107;-87
2021/01/07 05:28:05;;;;;;;9.48;5.47;;;2.50;92.90;;;;;;5052654;28;20456;-90
2021/01/07 05:30:33;;;;;;;10.48;5.35;;;2.50;92.80;;;;;;5048252;28;20052;-88
2021/01/07 05:33:04;;;;;;;8.80;4.82;;;2.50;92.90;;;;;;5051643;28;20032;-90
2021/01/07 05:35:30;;;;;;;8.85;5.55;;;2.50;92.90;;;;;;5050295;28;20045;-88
2021/01/07 05:38:00;;;;;;;9.60;4.90;;;2.50;92.90;;;;;;5053294;28;20187;-82
2021/01/07 05:40:27;;;;;;;11.27;5.07;;;2.50;92.90;;;;;;5048547;28;20376;-90
2021/01/07 05:43:01;;;;;;;11.50;5.07;;;2.50;92.90;;;;;;5052626;28;20036;-84
2021/01/07 05:45:37;;;;;;;9.80;5.00;;;2.50;92.90;;;;;;5048835;28;20125;-92
2021/01/07 05:48:03;;;;;;;11.48;5.25;;;2.50;92.90;;;;;;5047545;28;20306;-90
2021/01/07 05:50:36;;;;;;;9.52;5.30;;;2.50;92.90;;;;;;5052554;28;20476;-88
2021/01/07 05:53:03;;;;;;;8.85;5.15;;;2.60;93.00;;;;;;5060543;28;20020;-83
2021/01/07 05:55:29;;;;;;;8.65;5.07;;;2.60;93.00;;;;;;5062631;28;20047;-90
2021/01/07 05:58:02;;;;;;;9.10;4.93;;;2.60;93.00;;;;;;5051622;28;20040;-90
2021/01/07 06:00:33;;;;;;;8.85;5.72;;;2.60;93.00;;;;;;5053340;28;20033;-91
2021/01/07 06:03:00;;;;;;;8.98;4.43;;;2.60;93.00;;;;;;5051300;28;20126;-91
2021/01/07 06:05:27;;;;;;;10.25;4.75;;;2.60;92.90;;;;;;5057881;28;20108;-89
2021/01/07 06:07:57;;;;;;;8.40;4.15;;;2.60;92.90;;;;;;5074024;28;20020;-81
2021/01/07 06:10:24;;;;;;;10.93;4.82;;;2.60;92.90;;;;;;5069286;28;20024;-83
2021/01/07 06:12:51;;;;;;;8.77;5.20;;;2.60;92.90;;;;;;5053919;28;20060;-88
2021/01/07 06:15:20;;;;;;;10.57;4.93;;;2.60;92.90;;;;;;5052738;28;20028;-85
2021/01/07 06:17:47;;;;;;;10.85;4.75;;;2.60;93.00;;;;;;5050995;28;20033;-89
2021/01/07 06:20:20;;;;;;;7.70;4.38;;;2.60;93.00;;;;;;5050108;28;20057;-89
2021/01/07 06:22:47;;;;;;;9.77;4.70;;;2.60;93.00;;;;;;5053655;28;20051;-86
2021/01/07 06:25:15;;;;;;;8.13;5.18;;;2.60;92.90;;;;;;5050531;28;20375;-90
2021/01/07 06:27:45;;;;;;;10.68;5.35;;;2.60;92.90;;;;;;5060362;28;20123;-90
2021/01/07 06:30:10;;;;;;;8.45;4.63;;;2.60;93.00;;;;;;5056601;28;20025;-85
2021/01/07 06:32:40;;;;;;;9.63;4.43;;;2.60;93.00;;;;;;5069404;28;20044;-87
2021/01/07 06:35:10;;;;;;;9.88;4.75;;;2.60;92.90;;;;;;5050550;28;20650;-89
2021/01/07 06:37:40;;;;;;;8.98;3.85;;;2.60;92.90;;;;;;5050147;28;20041;-89
2021/01/07 06:40:08;;;;;;;10.45;4.60;;;2.60;92.90;;;;;;5044332;28;20037;-90
2021/01/07 06:42:39;;;;;;;10.90;4.55;;;2.60;92.90;;;;;;5043183;28;20025;-85
2021/01/07 06:45:07;;;;;;;10.48;4.65;;;2.60;92.80;;;;;;5046650;28;20041;-81
2021/01/07 06:47:33;;;;;;;10.05;4.18;;;2.60;92.80;;;;;;5044484;28;20032;-90
2021/01/07 06:50:03;;;;;;;8.35;4.32;;;2.60;92.90;;;;;;5042835;28;20150;-87
2021/01/07 06:52:39;;;;;;;7.75;3.88;;;2.50;92.80;;;;;;5059437;28;20143;-85
2021/01/07 06:55:09;;;;;;;9.20;3.90;;;2.60;92.90;;;;;;5060325;28;20033;-84
2021/01/07 06:57:45;;;;;;;7.97;3.72;;;2.60;92.90;;;;;;5044186;28;20695;-88
2021/01/07 07:00:15;;;;;;;9.98;4.07;;;2.60;92.90;;;;;;5041276;28;20102;-89
2021/01/07 07:02:56;;;;;;;8.80;4.55;;;2.60;92.90;;;;;;5041407;28;20036;-89
2021/01/07 07:05:23;;;;;;;7.80;4.03;;;2.60;92.90;;;;;;5044866;28;20079;-91
2021/01/07 07:08:09;;;;;;;9.50;4.20;;;2.60;92.90;;;;;;5038483;28;20514;-90
2021/01/07 07:10:38;;;;;;;8.80;4.45;;;2.60;92.80;;;;;;5041050;28;21705;-83
2021/01/07 07:13:21;;;;;;;9.43;4.82;;;2.60;92.80;;;;;;5042581;28;20070;-88
2021/01/07 07:15:48;;;;;;;9.57;4.70;;;2.60;92.90;;;;;;5040810;28;20140;-85
2021/01/07 07:18:25;;;;;;;15.30;5.88;;;2.60;92.80;;;;;;5054133;28;20087;-82
2021/01/07 07:20:51;;;;;;;11.48;5.95;;;2.60;92.90;;;;;;5035678;28;20056;-86
2021/01/07 07:23:21;;;;;;;9.65;5.63;;;2.60;92.90;;;;;;5036129;28;20099;-89
2021/01/07 07:25:50;;;;;;;13.65;6.03;;;2.60;92.90;;;;;;5038651;28;20331;-87
2021/01/07 07:28:18;;;;;;;12.10;6.32;;;2.60;92.90;;;;;;5055479;28;21066;-90
2021/01/07 07:30:46;;;;;;;11.82;6.38;;;2.60;92.80;;;;;;5041420;28;20037;-89
2021/01/07 07:33:12;;;;;;;11.05;6.18;;;2.60;92.80;;;;;;5058189;28;20049;-78
2021/01/07 07:35:43;;;;;;;12.32;7.00;;;2.60;92.80;;;;;;5062913;28;20500;-78
2021/01/07 07:38:10;;;;;;;14.23;6.75;;;2.60;92.90;;;;;;5044239;28;20083;-78
2021/01/07 07:40:40;;;;;;;9.60;5.97;;;2.60;92.90;;;;;;5046862;28;20700;-76
2021/01/07 07:43:10;;;;;;;12.52;5.93;;;2.70;92.80;;;;;;5045122;28;20037;-73
2021/01/07 07:45:40;;;;;;;12.25;6.63;;;2.70;92.70;;;;;;5039860;28;20098;-76
2021/01/07 07:48:08;;;;;;;10.60;6.10;;;2.60;92.60;;;;;;5038137;28;20533;-74
2021/01/07 07:50:34;;;;;;;11.48;6.22;;;2.60;92.60;;;;;;5039948;28;20029;-72
2021/01/07 07:53:07;;;;;;;14.20;7.32;;;2.60;92.60;;;;;;5040562;28;20035;-72
2021/01/07 07:55:37;;;;;;;10.05;6.97;;;2.60;92.60;;;;;;5038052;28;20107;-77
2021/01/07 07:58:13;;;;;;;12.85;7.18;;;2.60;92.60;;;;;;5038155;28;20069;-77
2021/01/07 08:00:50;;;;;;;12.07;8.07;;;2.50;92.70;;;;;;5039484;28;20496;-73
2021/01/07 08:03:25;;;;;;;16.15;8.55;;;2.50;92.80;;;;;;5040977;28;20400;-73
2021/01/07 08:05:52;;;;;;;14.00;8.23;;;2.40;92.90;;;;;;5037466;28;20041;-71
2021/01/07 08:08:28;;;;;;;12.43;7.40;;;2.40;92.90;;;;;;5033298;28;20509;-75
2021/01/07 08:10:55;;;;;;;11.85;7.05;;;2.40;93.00;;;;;;5034649;28;20101;-75
2021/01/07 08:13:23;;;;;;;14.75;8.35;;;2.40;93.00;;;;;;5046990;28;20384;-72
2021/01/07 08:15:50;;;;;;;12.77;7.47;;;2.40;93.00;;;;;;5041304;28;20396;-73
2021/01/07 08:18:24;;;;;;;12.20;8.07;;;2.30;93.00;;;;;;5045804;28;20362;-76
2021/01/07 08:20:52;;;;;;;15.40;8.20;;;2.30;93.10;;;;;;5036780;28;20108;-75
2021/01/07 08:23:19;;;;;;;15.13;8.88;;;2.30;93.10;;;;;;5039488;28;20040;-72
2021/01/07 08:25:50;;;;;;;14.35;9.00;;;2.30;93.00;;;;;;5037715;28;20040;-73
2021/01/07 08:28:25;;;;;;;15.43;8.95;;;2.30;93.00;;;;;;5036376;28;20448;-73
2021/01/07 08:30:54;;;;;;;19.30;9.95;;;2.20;93.00;;;;;;5036721;28;20048;-73
2021/01/07 08:33:22;;;;;;;16.23;8.70;;;2.20;93.00;;;;;;5037710;28;20033;-72
2021/01/07 08:35:49;;;;;;;14.52;8.35;;;2.20;93.00;;;;;;5042597;28;20052;-74
2021/01/07 08:38:29;;;;;;;13.73;8.88;;;2.20;93.00;;;;;;5040811;28;20048;-76
2021/01/07 08:41:09;;;;;;;17.83;8.90;;;2.20;93.00;;;;;;5040551;28;20052;-76
2021/01/07 08:43:35;;;;;;;16.45;9.63;;;2.20;93.00;;;;;;5050886;28;20635;-73
2021/01/07 08:46:22;;;;;;;15.50;9.15;;;2.20;92.90;;;;;;5048808;28;20154;-73
2021/01/07 08:49:02;;;;;;;14.38;9.02;;;2.30;92.90;;;;;;5046019;28;20040;-72
2021/01/07 08:51:35;;;;;;;17.83;9.43;;;2.30;92.80;;;;;;5042119;28;20411;-73
2021/01/07 08:54:08;;;;;;;17.45;10.30;;;2.30;92.80;;;;;;5037686;28;20419;-73
2021/01/07 08:56:35;;;;;;;19.35;11.73;;;2.30;92.80;;;;;;5042640;28;20046;-72
2021/01/07 08:59:33;;;;;;;19.10;11.25;;;2.30;92.70;;;;;;5039848;28;20201;-72
2021/01/07 09:02:07;;;;;;;18.90;9.77;;;2.40;92.60;;;;;;5046017;28;20402;-72
2021/01/07 09:04:40;;;;;;;14.27;9.32;;;2.40;92.60;;;;;;5040887;28;20033;-72
2021/01/07 09:07:13;;;;;;;18.17;8.43;;;2.50;92.50;;;;;;5039654;28;20457;-75
2021/01/07 09:09:48;;;;;;;15.15;8.15;;;2.60;92.50;;;;;;5054721;28;20035;-73
2021/01/07 09:12:23;;;;;;;17.25;8.75;;;2.60;92.20;;;;;;5041220;28;20463;-72
2021/01/07 09:15:15;;;;;;;15.52;7.38;;;2.60;92.10;;;;;;5036130;28;20065;-74
2021/01/07 09:17:47;;;;;;;13.73;7.38;;;2.70;91.90;;;;;;5036016;28;20499;-78
2021/01/07 09:20:14;;;;;;;13.77;7.05;;;2.70;91.60;;;;;;5043652;28;20028;-72
2021/01/07 09:22:40;;;;;;;11.38;6.63;;;2.80;91.40;;;;;;5046230;28;20040;-72
2021/01/07 09:25:08;;;;;;;15.35;7.43;;;2.80;91.30;;;;;;5041801;28;20067;-74
2021/01/07 09:27:34;;;;;;;14.82;7.38;;;2.80;91.10;;;;;;5041765;28;20029;-72
2021/01/07 09:29:59;;;;;;;18.00;6.97;;;2.80;90.90;;;;;;5036634;28;20487;-75
2021/01/07 09:32:25;;;;;;;14.85;7.57;;;2.90;91.00;;;;;;5040668;28;20029;-74
2021/01/07 09:34:51;;;;;;;13.23;6.88;;;2.90;91.10;;;;;;5039855;28;20072;-73
2021/01/07 09:37:22;;;;;;;16.20;7.60;;;3.00;90.90;;;;;;5044944;28;20049;-72
2021/01/07 09:39:49;;;;;;;13.27;7.10;;;3.10;90.90;;;;;;5039768;28;20439;-72
2021/01/07 09:42:17;;;;;;;14.50;6.28;;;3.10;90.70;;;;;;5039144;28;20029;-72
2021/01/07 09:44:42;;;;;;;16.55;6.28;;;3.20;90.50;;;;;;5042809;28;20033;-75
2021/01/07 09:47:08;;;;;;;11.63;6.25;;;3.30;90.40;;;;;;5043031;28;20082;-73
2021/01/07 09:49:35;;;;;;;12.23;6.57;;;3.40;90.10;;;;;;5041289;28;20033;-73
2021/01/07 09:52:02;;;;;;;16.40;7.15;;;3.50;90.20;;;;;;5042254;28;20029;-72
2021/01/07 09:54:28;;;;;;;14.73;7.45;;;3.40;90.00;;;;;;5041416;28;20517;-73
2021/01/07 09:56:55;;;;;;;13.25;7.72;;;3.40;90.10;;;;;;5041961;28;20049;-72
2021/01/07 09:59:27;;;;;;;13.35;7.68;;;3.50;90.10;;;;;;5039367;28;20439;-74
2021/01/07 10:01:54;;;;;;;17.58;9.85;;;3.60;90.20;;;;;;5040621;28;20636;-74
2021/01/07 10:04:21;;;;;;;19.38;11.52;;;3.60;89.80;;;;;;5037447;28;20032;-72
2021/01/07 10:06:48;;;;;;;19.58;12.05;;;3.70;89.90;;;;;;5046986;28;20052;-73
2021/01/07 10:09:14;;;;;;;24.40;13.80;;;3.70;89.40;;;;;;5050921;28;20434;-72
2021/01/07 10:11:39;;;;;;;20.58;12.77;;;3.80;89.30;;;;;;5041325;28;20029;-76
2021/01/07 10:14:05;;;;;;;17.33;11.13;;;3.80;89.00;;;;;;5041310;28;20029;-73
2021/01/07 10:16:30;;;;;;;21.15;12.43;;;3.90;89.00;;;;;;5041150;28;20102;-76
2021/01/07 10:18:56;;;;;;;18.40;10.45;;;4.00;88.90;;;;;;5041326;28;20041;-72
2021/01/07 10:21:24;;;;;;;18.42;11.13;;;3.90;88.90;;;;;;5034407;28;20476;-73
2021/01/07 10:23:51;;;;;;;17.23;10.13;;;4.00;88.70;;;;;;5042035;28;20037;-75
2021/01/07 10:26:18;;;;;;;16.73;8.13;;;4.00;88.60;;;;;;5040601;28;20037;-72
2021/01/07 10:28:45;;;;;;;18.35;8.27;;;4.00;88.40;;;;;;5043786;28;20028;-72
2021/01/07 10:31:13;;;;;;;18.95;8.43;;;3.90;88.70;;;;;;5042204;28;20049;-74
2021/01/07 10:33:41;;;;;;;20.40;7.75;;;3.90;88.70;;;;;;5048528;28;20041;-73
2021/01/07 10:36:06;;;;;;;16.92;10.30;;;3.90;88.80;;;;;;5049377;28;20468;-73
2021/01/07 10:38:32;;;;;;;18.05;7.90;;;3.90;89.10;;;;;;5041088;28;20067;-72
2021/01/07 10:41:00;;;;;;;13.82;8.10;;;4.00;89.30;;;;;;5040565;28;20032;-73
2021/01/07 10:43:28;;;;;;;17.63;7.72;;;4.10;89.30;;;;;;5038287;28;20147;-74
2021/01/07 10:45:55;;;;;;;15.77;7.20;;;4.20;88.90;;;;;;5041842;28;20165;-73
2021/01/07 10:48:22;;;;;;;14.05;5.18;;;4.20;88.50;;;;;;5040457;28;20062;-72
2021/01/07 10:50:49;;;;;;;13.45;6.55;;;4.10;87.60;;;;;;5041581;28;20033;-74
2021/01/07 10:53:45;;;;;;;13.20;6.10;;;4.30;87.60;;;;;;5053723;28;20471;-72
2021/01/07 10:56:31;;;;;;;13.10;5.30;;;4.40;87.60;;;;;;5039730;28;20462;-73
2021/01/07 10:59:15;;;;;;;12.80;5.55;;;4.40;87.50;;;;;;5040685;28;20061;-73
2021/01/07 11:02:16;;;;;;;18.42;8.40;;;4.40;87.00;;;;;;5040908;28;20033;-73
2021/01/07 11:05:17;;;;;;;10.25;5.18;;;4.40;87.70;;;;;;5040424;28;20037;-74
2021/01/07 11:08:01;;;;;;;17.23;11.95;;;4.30;87.40;;;;;;5036596;28;20045;-75
2021/01/07 11:10:29;;;;;;;15.57;6.65;;;4.30;87.50;;;;;;5041796;28;20043;-72
2021/01/07 11:12:59;;;;;;;11.75;6.00;;;4.30;87.50;;;;;;5041506;28;20032;-76
2021/01/07 11:15:28;;;;;;;10.50;4.50;;;4.40;87.80;;;;;;5036803;28;20040;-73
2021/01/07 11:18:02;;;;;;;11.00;4.53;;;4.40;87.60;;;;;;5047005;28;20044;-73
2021/01/07 11:20:30;;;;;;;9.77;4.72;;;4.30;87.60;;;;;;5036856;28;20433;-75
2021/01/07 11:22:56;;;;;;;10.98;4.50;;;4.20;87.60;;;;;;5039534;28;20039;-73
2021/01/07 11:25:22;;;;;;;6.97;3.33;;;4.20;87.70;;;;;;5037645;28;20130;-75
2021/01/07 11:27:50;;;;;;;7.75;3.22;;;4.20;87.80;;;;;;5038223;28;20063;-73
2021/01/07 11:30:16;;;;;;;6.22;2.95;;;4.40;87.70;;;;;;5040522;28;20039;-75
2021/01/07 11:32:45;;;;;;;7.82;3.45;;;4.40;87.70;;;;;;5038869;28;20033;-74
2021/01/07 11:35:11;;;;;;;6.65;3.15;;;4.50;87.20;;;;;;5038517;28;20029;-75
2021/01/07 11:37:39;;;;;;;9.15;5.03;;;4.60;87.00;;;;;;5039171;28;20048;-73
2021/01/07 11:40:14;;;;;;;7.53;4.13;;;4.70;86.80;;;;;;5039206;28;20045;-73
2021/01/07 11:42:54;;;;;;;8.95;4.05;;;4.80;86.70;;;;;;5039154;28;20033;-74
2021/01/07 11:45:21;;;;;;;9.57;4.28;;;4.80;86.60;;;;;;5040118;28;20036;-75
2021/01/07 11:47:53;;;;;;;11.75;3.70;;;4.80;86.30;;;;;;5041473;28;20657;-76
2021/01/07 11:50:19;;;;;;;6.95;2.80;;;4.80;86.50;;;;;;5034419;28;20377;-74
2021/01/07 11:52:45;;;;;;;8.57;3.15;;;4.80;86.30;;;;;;5039377;28;20037;-76
2021/01/07 11:55:21;;;;;;;8.45;3.45;;;4.90;86.10;;;;;;5020993;28;20578;-76
2021/01/07 11:57:47;;;;;;;6.97;3.22;;;4.90;86.50;;;;;;5039293;28;20571;-74
2021/01/07 12:00:17;;;;;;;9.55;3.50;;;4.80;86.40;;;;;;5039309;28;20037;-77
2021/01/07 12:02:45;;;;;;;10.23;5.15;;;4.60;86.70;;;;;;5038361;28;20416;-76
2021/01/07 12:05:17;;;;;;;9.50;4.05;;;4.60;87.30;;;;;;5038214;28;20460;-73
2021/01/07 12:08:04;;;;;;;11.15;5.47;;;4.70;87.80;;;;;;5038513;28;20059;-74
2021/01/07 12:10:31;;;;;;;10.85;4.82;;;4.60;87.80;;;;;;5038788;28;20127;-74
2021/01/07 12:13:20;;;;;;;11.55;4.63;;;4.40;87.60;;;;;;5049402;28;20514;-74
2021/01/07 12:15:49;;;;;;;9.85;4.88;;;4.40;88.10;;;;;;5046451;28;20049;-74
2021/01/07 12:18:16;;;;;;;9.68;5.13;;;4.40;88.30;;;;;;5039313;28;20025;-75
2021/01/07 12:20:43;;;;;;;12.77;5.82;;;4.30;88.50;;;;;;5039138;28;20037;-73
2021/01/07 12:23:12;;;;;;;13.68;5.07;;;4.20;88.70;;;;;;5032674;28;20063;-75
2021/01/07 12:25:39;;;;;;;13.00;5.28;;;4.10;88.60;;;;;;5039026;28;20073;-74
2021/01/07 12:28:15;;;;;;;9.20;4.88;;;4.10;89.00;;;;;;5039592;28;20032;-74
2021/01/07 12:30:45;;;;;;;8.90;4.22;;;4.10;89.30;;;;;;5043274;28;20041;-76
2021/01/07 12:33:26;;;;;;;8.90;4.22;;;4.10;89.30;;;;;;5042444;28;20033;-76
2021/01/07 12:36:03;;;;;;;8.65;4.00;;;4.00;89.30;;;;;;5046172;28;20485;-77
2021/01/07 12:38:39;;;;;;;8.48;3.65;;;3.90;89.30;;;;;;5041097;28;20054;-73
2021/01/07 12:41:09;;;;;;;8.77;3.78;;;3.80;89.50;;;;;;5042267;28;20040;-72
2021/01/07 12:43:38;;;;;;;8.43;3.75;;;3.80;89.70;;;;;;5041272;28;20041;-73
2021/01/07 12:46:03;;;;;;;12.48;3.83;;;3.80;89.60;;;;;;5042549;28;20029;-73
2021/01/07 12:48:31;;;;;;;7.95;3.40;;;3.70;89.60;;;;;;5042652;28;20029;-74
2021/01/07 12:50:57;;;;;;;8.15;3.55;;;3.80;89.70;;;;;;5042309;28;20030;-73
2021/01/07 12:53:23;;;;;;;7.00;3.75;;;3.90;89.80;;;;;;5040854;28;20174;-73